Sorrento, Canada
Current Conditions -  °F | °C
As of 7:00 AM on Thursday 18 Dec 2014 (Local Time) from CYKA Reporting Station
Overcast Overcast  
Wind Chill: 34°   Ceiling: 2000
Heat Index: 34°   Visibility: 40mi
Dew Point: 30°   Wind: 3mph
Humidity: 87%   Direction: 50°NE
Pressure: 29.94"   Gusts: NA
Location:  50.88°N, 119.41°W
Report Text: CYKA 181500Z 05003KT 40SM SCT012 BKN020 OVC100 01/M01 A2994 RMK SC4SC2AC2 SLP153
Loading
Personal Weather Stations






























Interactive Weather Map New forecast layout! Learn more

10-Day Weather Forecast

Advertisements
Track Severe Weather on mobile